sensor_id;sensor_type;location;lat;lon;timestamp;temperature;humidity
66835;HTU21D;53743;51.100;5.874;2022-08-03T00:00:00;23.46;64.96
66835;HTU21D;53743;51.100;5.874;2022-08-03T00:01:01;23.46;65.04
66835;HTU21D;53743;51.100;5.874;2022-08-03T00:02:02;23.45;65.03
66835;HTU21D;53743;51.100;5.874;2022-08-03T00:03:03;23.43;65.02
66835;HTU21D;53743;51.100;5.874;2022-08-03T00:04:05;23.43;65.18
66835;HTU21D;53743;51.100;5.874;2022-08-03T00:05:07;23.42;65.25
66835;HTU21D;53743;51.100;5.874;2022-08-03T00:06:08;23.40;65.28
66835;HTU21D;53743;51.100;5.874;2022-08-03T00:07:08;23.39;65.43
66835;HTU21D;53743;51.100;5.874;2022-08-03T00:08:10;23.32;65.52
66835;HTU21D;53743;51.100;5.874;2022-08-03T00:09:10;23.31;65.52
66835;HTU21D;53743;51.100;5.874;2022-08-03T00:10:12;23.30;65.56
66835;HTU21D;53743;51.100;5.874;2022-08-03T00:11:13;23.28;65.69
66835;HTU21D;53743;51.100;5.874;2022-08-03T00:12:14;23.25;65.78
66835;HTU21D;53743;51.100;5.874;2022-08-03T00:13:14;23.24;65.84
66835;HTU21D;53743;51.100;5.874;2022-08-03T00:14:15;23.20;65.82
66835;HTU21D;53743;51.100;5.874;2022-08-03T00:15:16;23.18;65.96
66835;HTU21D;53743;51.100;5.874;2022-08-03T00:16:17;23.17;65.93
66835;HTU21D;53743;51.100;5.874;2022-08-03T00:17:18;23.15;65.91
66835;HTU21D;53743;51.100;5.874;2022-08-03T00:18:18;23.14;66.02
66835;HTU21D;53743;51.100;5.874;2022-08-03T00:19:19;23.11;66.06
66835;HTU21D;53743;51.100;5.874;2022-08-03T00:20:21;23.10;66.17
66835;HTU21D;53743;51.100;5.874;2022-08-03T00:21:21;23.08;66.34
66835;HTU21D;53743;51.100;5.874;2022-08-03T00:22:22;23.08;66.47
66835;HTU21D;53743;51.100;5.874;2022-08-03T00:23:23;23.06;66.63
66835;HTU21D;53743;51.100;5.874;2022-08-03T00:24:23;23.06;66.62
66835;HTU21D;53743;51.100;5.874;2022-08-03T00:25:24;23.03;66.70
66835;HTU21D;53743;51.100;5.874;2022-08-03T00:26:25;23.02;66.73
66835;HTU21D;53743;51.100;5.874;2022-08-03T00:27:26;22.99;66.83
66835;HTU21D;53743;51.100;5.874;2022-08-03T00:28:26;22.99;66.97
66835;HTU21D;53743;51.100;5.874;2022-08-03T00:29:27;22.96;67.01
66835;HTU21D;53743;51.100;5.874;2022-08-03T00:30:28;22.95;67.04
66835;HTU21D;53743;51.100;5.874;2022-08-03T00:31:29;22.94;67.10
66835;HTU21D;53743;51.100;5.874;2022-08-03T00:32:30;22.94;67.10
66835;HTU21D;53743;51.100;5.874;2022-08-03T00:33:31;22.92;67.17
66835;HTU21D;53743;51.100;5.874;2022-08-03T00:34:32;22.90;67.19
66835;HTU21D;53743;51.100;5.874;2022-08-03T00:35:32;22.86;67.36
66835;HTU21D;53743;51.100;5.874;2022-08-03T00:36:33;22.84;67.54
66835;HTU21D;53743;51.100;5.874;2022-08-03T00:37:34;22.80;67.64
66835;HTU21D;53743;51.100;5.874;2022-08-03T00:38:34;22.79;67.70
66835;HTU21D;53743;51.100;5.874;2022-08-03T00:39:35;22.77;67.78
66835;HTU21D;53743;51.100;5.874;2022-08-03T00:40:36;22.76;67.79
66835;HTU21D;53743;51.100;5.874;2022-08-03T00:41:36;22.76;67.90
66835;HTU21D;53743;51.100;5.874;2022-08-03T00:42:52;22.76;67.97
66835;HTU21D;53743;51.100;5.874;2022-08-03T00:43:59;22.73;68.10
66835;HTU21D;53743;51.100;5.874;2022-08-03T00:45:00;22.71;68.22
66835;HTU21D;53743;51.100;5.874;2022-08-03T00:46:01;22.68;68.25
66835;HTU21D;53743;51.100;5.874;2022-08-03T00:47:01;22.67;68.40
66835;HTU21D;53743;51.100;5.874;2022-08-03T00:48:04;22.66;68.56
66835;HTU21D;53743;51.100;5.874;2022-08-03T00:49:06;22.65;68.48
66835;HTU21D;53743;51.100;5.874;2022-08-03T00:50:07;22.64;68.51
66835;HTU21D;53743;51.100;5.874;2022-08-03T00:51:08;22.66;68.80
66835;HTU21D;53743;51.100;5.874;2022-08-03T00:52:10;22.67;68.74
66835;HTU21D;53743;51.100;5.874;2022-08-03T00:53:13;22.65;68.55
66835;HTU21D;53743;51.100;5.874;2022-08-03T00:54:16;22.64;68.59
66835;HTU21D;53743;51.100;5.874;2022-08-03T00:55:18;22.63;68.55
66835;HTU21D;53743;51.100;5.874;2022-08-03T00:56:19;22.64;68.56
66835;HTU21D;53743;51.100;5.874;2022-08-03T00:57:20;22.62;68.57
66835;HTU21D;53743;51.100;5.874;2022-08-03T00:58:20;22.61;68.67
66835;HTU21D;53743;51.100;5.874;2022-08-03T00:59:21;22.61;68.72
66835;HTU21D;53743;51.100;5.874;2022-08-03T01:00:24;22.56;68.78
66835;HTU21D;53743;51.100;5.874;2022-08-03T01:01:26;22.55;69.00
66835;HTU21D;53743;51.100;5.874;2022-08-03T01:02:28;22.52;69.07
66835;HTU21D;53743;51.100;5.874;2022-08-03T01:03:28;22.50;69.28
66835;HTU21D;53743;51.100;5.874;2022-08-03T01:04:29;22.48;69.34
66835;HTU21D;53743;51.100;5.874;2022-08-03T01:07:02;22.44;69.52
66835;HTU21D;53743;51.100;5.874;2022-08-03T01:08:21;22.44;69.55
66835;HTU21D;53743;51.100;5.874;2022-08-03T01:11:26;22.38;69.91
66835;HTU21D;53743;51.100;5.874;2022-08-03T01:14:05;22.39;69.91
66835;HTU21D;53743;51.100;5.874;2022-08-03T01:18:07;22.40;69.71
66835;HTU21D;53743;51.100;5.874;2022-08-03T01:20:53;22.41;69.84
66835;HTU21D;53743;51.100;5.874;2022-08-03T01:23:45;22.39;69.85
66835;HTU21D;53743;51.100;5.874;2022-08-03T01:27:22;22.37;69.94
66835;HTU21D;53743;51.100;5.874;2022-08-03T01:28:38;22.36;69.94
66835;HTU21D;53743;51.100;5.874;2022-08-03T01:30:07;22.34;69.97
66835;HTU21D;53743;51.100;5.874;2022-08-03T01:31:12;22.31;70.10
66835;HTU21D;53743;51.100;5.874;2022-08-03T01:32:27;22.29;70.21
66835;HTU21D;53743;51.100;5.874;2022-08-03T01:34:02;22.28;70.32
66835;HTU21D;53743;51.100;5.874;2022-08-03T01:35:12;22.25;70.33
66835;HTU21D;53743;51.100;5.874;2022-08-03T01:36:21;22.25;70.39
66835;HTU21D;53743;51.100;5.874;2022-08-03T01:37:33;22.23;70.42
66835;HTU21D;53743;51.100;5.874;2022-08-03T01:38:52;22.21;70.64
66835;HTU21D;53743;51.100;5.874;2022-08-03T01:39:58;22.19;70.68
66835;HTU21D;53743;51.100;5.874;2022-08-03T01:41:06;22.16;70.80
66835;HTU21D;53743;51.100;5.874;2022-08-03T01:42:13;22.13;70.90
66835;HTU21D;53743;51.100;5.874;2022-08-03T01:43:22;22.09;71.04
66835;HTU21D;53743;51.100;5.874;2022-08-03T01:44:30;22.08;71.14
66835;HTU21D;53743;51.100;5.874;2022-08-03T01:45:37;22.05;71.23
66835;HTU21D;53743;51.100;5.874;2022-08-03T01:46:40;22.03;71.32
66835;HTU21D;53743;51.100;5.874;2022-08-03T01:47:44;21.99;71.47
66835;HTU21D;53743;51.100;5.874;2022-08-03T01:48:47;21.99;71.51
66835;HTU21D;53743;51.100;5.874;2022-08-03T01:49:51;21.99;71.51
66835;HTU21D;53743;51.100;5.874;2022-08-03T01:50:58;21.99;71.60
66835;HTU21D;53743;51.100;5.874;2022-08-03T01:52:02;21.98;71.62
66835;HTU21D;53743;51.100;5.874;2022-08-03T01:53:08;21.99;71.66
66835;HTU21D;53743;51.100;5.874;2022-08-03T01:54:12;21.96;71.74
66835;HTU21D;53743;51.100;5.874;2022-08-03T01:55:17;21.94;71.81
66835;HTU21D;53743;51.100;5.874;2022-08-03T01:56:22;21.93;71.88
66835;HTU21D;53743;51.100;5.874;2022-08-03T01:57:28;21.95;71.86
66835;HTU21D;53743;51.100;5.874;2022-08-03T01:58:33;21.93;71.90
66835;HTU21D;53743;51.100;5.874;2022-08-03T01:59:37;21.94;71.95
66835;HTU21D;53743;51.100;5.874;2022-08-03T02:00:41;21.92;71.82
66835;HTU21D;53743;51.100;5.874;2022-08-03T02:01:43;21.93;71.92
66835;HTU21D;53743;51.100;5.874;2022-08-03T02:02:48;21.91;71.94
66835;HTU21D;53743;51.100;5.874;2022-08-03T02:03:53;21.93;71.95
66835;HTU21D;53743;51.100;5.874;2022-08-03T02:04:58;21.91;71.93
66835;HTU21D;53743;51.100;5.874;2022-08-03T02:06:01;21.92;71.80
66835;HTU21D;53743;51.100;5.874;2022-08-03T02:07:02;21.93;71.74
66835;HTU21D;53743;51.100;5.874;2022-08-03T02:08:04;21.92;71.77
66835;HTU21D;53743;51.100;5.874;2022-08-03T02:09:07;21.92;71.74
66835;HTU21D;53743;51.100;5.874;2022-08-03T02:10:12;21.92;71.75
66835;HTU21D;53743;51.100;5.874;2022-08-03T02:11:16;21.91;71.78
66835;HTU21D;53743;51.100;5.874;2022-08-03T02:12:18;21.88;71.74
66835;HTU21D;53743;51.100;5.874;2022-08-03T02:13:23;21.88;71.81
66835;HTU21D;53743;51.100;5.874;2022-08-03T02:14:27;21.84;71.92
66835;HTU21D;53743;51.100;5.874;2022-08-03T02:15:32;21.84;71.91
66835;HTU21D;53743;51.100;5.874;2022-08-03T02:16:36;21.83;72.00
66835;HTU21D;53743;51.100;5.874;2022-08-03T02:17:37;21.81;71.96
66835;HTU21D;53743;51.100;5.874;2022-08-03T02:18:41;21.82;71.97
66835;HTU21D;53743;51.100;5.874;2022-08-03T02:19:43;21.81;71.91
66835;HTU21D;53743;51.100;5.874;2022-08-03T02:20:46;21.81;72.00
66835;HTU21D;53743;51.100;5.874;2022-08-03T02:21:50;21.81;71.97
66835;HTU21D;53743;51.100;5.874;2022-08-03T02:22:53;21.79;72.03
66835;HTU21D;53743;51.100;5.874;2022-08-03T02:23:54;21.79;72.06
66835;HTU21D;53743;51.100;5.874;2022-08-03T02:24:56;21.79;72.09
66835;HTU21D;53743;51.100;5.874;2022-08-03T02:26:01;21.78;72.13
66835;HTU21D;53743;51.100;5.874;2022-08-03T02:27:09;21.77;72.12
66835;HTU21D;53743;51.100;5.874;2022-08-03T02:28:20;21.76;72.08
66835;HTU21D;53743;51.100;5.874;2022-08-03T02:29:27;21.74;72.13
66835;HTU21D;53743;51.100;5.874;2022-08-03T02:30:37;21.73;72.15
66835;HTU21D;53743;51.100;5.874;2022-08-03T02:31:42;21.73;72.16
66835;HTU21D;53743;51.100;5.874;2022-08-03T02:32:51;21.72;72.29
66835;HTU21D;53743;51.100;5.874;2022-08-03T02:34:01;21.69;72.29
66835;HTU21D;53743;51.100;5.874;2022-08-03T02:35:10;21.69;72.25
66835;HTU21D;53743;51.100;5.874;2022-08-03T02:36:21;21.68;72.39
66835;HTU21D;53743;51.100;5.874;2022-08-03T02:37:29;21.68;72.40
66835;HTU21D;53743;51.100;5.874;2022-08-03T02:38:37;21.66;72.40
66835;HTU21D;53743;51.100;5.874;2022-08-03T02:39:43;21.66;72.37
66835;HTU21D;53743;51.100;5.874;2022-08-03T02:40:48;21.65;72.48
66835;HTU21D;53743;51.100;5.874;2022-08-03T02:41:53;21.62;72.65
66835;HTU21D;53743;51.100;5.874;2022-08-03T02:43:06;21.58;72.54
66835;HTU21D;53743;51.100;5.874;2022-08-03T02:44:12;21.53;72.73
66835;HTU21D;53743;51.100;5.874;2022-08-03T02:45:17;21.52;72.79
66835;HTU21D;53743;51.100;5.874;2022-08-03T02:46:24;21.51;72.87
66835;HTU21D;53743;51.100;5.874;2022-08-03T02:47:31;21.50;72.96
66835;HTU21D;53743;51.100;5.874;2022-08-03T02:48:37;21.47;72.98
66835;HTU21D;53743;51.100;5.874;2022-08-03T02:49:41;21.47;73.15
66835;HTU21D;53743;51.100;5.874;2022-08-03T02:50:44;21.45;73.20
66835;HTU21D;53743;51.100;5.874;2022-08-03T02:51:49;21.43;73.30
66835;HTU21D;53743;51.100;5.874;2022-08-03T02:52:54;21.40;73.39
66835;HTU21D;53743;51.100;5.874;2022-08-03T02:54:01;21.42;73.35
66835;HTU21D;53743;51.100;5.874;2022-08-03T02:55:06;21.42;73.36
66835;HTU21D;53743;51.100;5.874;2022-08-03T02:56:11;21.42;73.30
66835;HTU21D;53743;51.100;5.874;2022-08-03T02:57:16;21.40;73.25
66835;HTU21D;53743;51.100;5.874;2022-08-03T02:58:20;21.40;73.35
66835;HTU21D;53743;51.100;5.874;2022-08-03T02:59:25;21.40;73.32
66835;HTU21D;53743;51.100;5.874;2022-08-03T03:00:30;21.39;73.22
66835;HTU21D;53743;51.100;5.874;2022-08-03T03:01:32;21.39;73.29
66835;HTU21D;53743;51.100;5.874;2022-08-03T03:02:34;21.39;73.16
66835;HTU21D;53743;51.100;5.874;2022-08-03T03:03:39;21.40;73.24
66835;HTU21D;53743;51.100;5.874;2022-08-03T03:04:42;21.40;73.18
66835;HTU21D;53743;51.100;5.874;2022-08-03T03:05:45;21.39;73.26
66835;HTU21D;53743;51.100;5.874;2022-08-03T03:06:48;21.38;73.19
66835;HTU21D;53743;51.100;5.874;2022-08-03T03:07:50;21.39;73.12
66835;HTU21D;53743;51.100;5.874;2022-08-03T03:08:53;21.37;73.21
66835;HTU21D;53743;51.100;5.874;2022-08-03T03:09:55;21.37;73.28
66835;HTU21D;53743;51.100;5.874;2022-08-03T03:10:59;21.37;73.15
66835;HTU21D;53743;51.100;5.874;2022-08-03T03:12:01;21.37;73.15
66835;HTU21D;53743;51.100;5.874;2022-08-03T03:13:04;21.36;73.21
66835;HTU21D;53743;51.100;5.874;2022-08-03T03:14:09;21.35;73.32
66835;HTU21D;53743;51.100;5.874;2022-08-03T03:15:12;21.35;73.28
66835;HTU21D;53743;51.100;5.874;2022-08-03T03:16:14;21.35;73.25
66835;HTU21D;53743;51.100;5.874;2022-08-03T03:17:16;21.33;73.24
66835;HTU21D;53743;51.100;5.874;2022-08-03T03:18:20;21.34;73.32
66835;HTU21D;53743;51.100;5.874;2022-08-03T03:19:22;21.34;73.25
66835;HTU21D;53743;51.100;5.874;2022-08-03T03:20:26;21.33;73.35
66835;HTU21D;53743;51.100;5.874;2022-08-03T03:21:30;21.32;73.36
66835;HTU21D;53743;51.100;5.874;2022-08-03T03:22:33;21.31;73.41
66835;HTU21D;53743;51.100;5.874;2022-08-03T03:23:37;21.30;73.51
66835;HTU21D;53743;51.100;5.874;2022-08-03T03:24:41;21.28;73.57
66835;HTU21D;53743;51.100;5.874;2022-08-03T03:25:44;21.27;73.59
66835;HTU21D;53743;51.100;5.874;2022-08-03T03:26:46;21.25;73.61
66835;HTU21D;53743;51.100;5.874;2022-08-03T03:27:48;21.25;73.77
66835;HTU21D;53743;51.100;5.874;2022-08-03T03:28:50;21.23;73.73
66835;HTU21D;53743;51.100;5.874;2022-08-03T03:29:52;21.21;73.72
66835;HTU21D;53743;51.100;5.874;2022-08-03T03:30:53;21.21;73.86
66835;HTU21D;53743;51.100;5.874;2022-08-03T03:31:54;21.19;73.90
66835;HTU21D;53743;51.100;5.874;2022-08-03T03:32:57;21.17;73.93
66835;HTU21D;53743;51.100;5.874;2022-08-03T03:33:58;21.17;74.02
66835;HTU21D;53743;51.100;5.874;2022-08-03T03:35:00;21.16;73.99
66835;HTU21D;53743;51.100;5.874;2022-08-03T03:36:01;21.15;74.00
66835;HTU21D;53743;51.100;5.874;2022-08-03T03:37:04;21.14;74.01
66835;HTU21D;53743;51.100;5.874;2022-08-03T03:38:06;21.13;74.09
66835;HTU21D;53743;51.100;5.874;2022-08-03T03:39:06;21.11;74.10
66835;HTU21D;53743;51.100;5.874;2022-08-03T03:40:07;21.10;74.15
66835;HTU21D;53743;51.100;5.874;2022-08-03T03:41:09;21.10;74.18
66835;HTU21D;53743;51.100;5.874;2022-08-03T03:42:10;21.10;74.19
66835;HTU21D;53743;51.100;5.874;2022-08-03T03:43:11;21.09;74.23
66835;HTU21D;53743;51.100;5.874;2022-08-03T03:44:12;21.10;74.23
66835;HTU21D;53743;51.100;5.874;2022-08-03T03:45:13;21.08;74.25
66835;HTU21D;53743;51.100;5.874;2022-08-03T03:46:15;21.07;74.22
66835;HTU21D;53743;51.100;5.874;2022-08-03T03:47:17;21.07;74.34
66835;HTU21D;53743;51.100;5.874;2022-08-03T03:48:18;21.06;74.37
66835;HTU21D;53743;51.100;5.874;2022-08-03T03:49:19;21.04;74.52
66835;HTU21D;53743;51.100;5.874;2022-08-03T03:50:21;21.05;74.40
66835;HTU21D;53743;51.100;5.874;2022-08-03T03:51:23;21.04;74.44
66835;HTU21D;53743;51.100;5.874;2022-08-03T03:52:24;21.05;74.47
66835;HTU21D;53743;51.100;5.874;2022-08-03T03:53:24;21.05;74.47
66835;HTU21D;53743;51.100;5.874;2022-08-03T03:54:25;21.05;74.54
66835;HTU21D;53743;51.100;5.874;2022-08-03T03:55:26;21.06;74.42
66835;HTU21D;53743;51.100;5.874;2022-08-03T03:56:27;21.06;74.53
66835;HTU21D;53743;51.100;5.874;2022-08-03T03:57:28;21.07;74.57
66835;HTU21D;53743;51.100;5.874;2022-08-03T03:58:30;21.07;74.53
66835;HTU21D;53743;51.100;5.874;2022-08-03T03:59:32;21.08;74.59
66835;HTU21D;53743;51.100;5.874;2022-08-03T04:00:33;21.08;74.45
66835;HTU21D;53743;51.100;5.874;2022-08-03T04:01:34;21.09;74.48
66835;HTU21D;53743;51.100;5.874;2022-08-03T04:02:35;21.08;74.47
66835;HTU21D;53743;51.100;5.874;2022-08-03T04:03:36;21.08;74.44
66835;HTU21D;53743;51.100;5.874;2022-08-03T04:04:37;21.07;74.55
66835;HTU21D;53743;51.100;5.874;2022-08-03T04:05:56;21.06;74.64
66835;HTU21D;53743;51.100;5.874;2022-08-03T04:07:17;21.04;74.71
66835;HTU21D;53743;51.100;5.874;2022-08-03T04:08:39;21.03;74.74
66835;HTU21D;53743;51.100;5.874;2022-08-03T04:10:01;21.03;74.83
66835;HTU21D;53743;51.100;5.874;2022-08-03T04:11:27;21.02;74.84
66835;HTU21D;53743;51.100;5.874;2022-08-03T04:12:37;21.03;74.91
66835;HTU21D;53743;51.100;5.874;2022-08-03T04:13:55;21.01;74.97
66835;HTU21D;53743;51.100;5.874;2022-08-03T04:15:07;21.02;74.98
66835;HTU21D;53743;51.100;5.874;2022-08-03T04:16:11;21.03;74.89
66835;HTU21D;53743;51.100;5.874;2022-08-03T04:17:15;21.03;74.80
66835;HTU21D;53743;51.100;5.874;2022-08-03T04:18:20;21.06;74.75
66835;HTU21D;53743;51.100;5.874;2022-08-03T04:20:46;21.06;74.73
66835;HTU21D;53743;51.100;5.874;2022-08-03T04:21:51;21.08;74.75
66835;HTU21D;53743;51.100;5.874;2022-08-03T04:22:57;21.10;74.64
66835;HTU21D;53743;51.100;5.874;2022-08-03T04:24:03;21.11;74.52
66835;HTU21D;53743;51.100;5.874;2022-08-03T04:25:09;21.14;74.42
66835;HTU21D;53743;51.100;5.874;2022-08-03T04:26:20;21.15;74.45
66835;HTU21D;53743;51.100;5.874;2022-08-03T04:27:29;21.17;74.44
66835;HTU21D;53743;51.100;5.874;2022-08-03T04:28:36;21.18;74.31
66835;HTU21D;53743;51.100;5.874;2022-08-03T04:29:45;21.19;74.32
66835;HTU21D;53743;51.100;5.874;2022-08-03T04:30:50;21.19;74.39
66835;HTU21D;53743;51.100;5.874;2022-08-03T04:31:55;21.20;74.29
66835;HTU21D;53743;51.100;5.874;2022-08-03T04:33:01;21.20;74.31
66835;HTU21D;53743;51.100;5.874;2022-08-03T04:34:03;21.21;74.35
66835;HTU21D;53743;51.100;5.874;2022-08-03T04:35:05;21.20;74.42
66835;HTU21D;53743;51.100;5.874;2022-08-03T04:36:11;21.22;74.48
66835;HTU21D;53743;51.100;5.874;2022-08-03T04:37:25;21.23;74.55
66835;HTU21D;53743;51.100;5.874;2022-08-03T04:39:02;21.21;74.51
66835;HTU21D;53743;51.100;5.874;2022-08-03T04:40:13;21.20;74.54
66835;HTU21D;53743;51.100;5.874;2022-08-03T04:41:20;21.21;74.57
66835;HTU21D;53743;51.100;5.874;2022-08-03T04:42:24;21.22;74.63
66835;HTU21D;53743;51.100;5.874;2022-08-03T04:43:27;21.23;74.67
66835;HTU21D;53743;51.100;5.874;2022-08-03T04:44:37;21.25;74.61
66835;HTU21D;53743;51.100;5.874;2022-08-03T04:45:41;21.28;74.61
66835;HTU21D;53743;51.100;5.874;2022-08-03T04:46:43;21.29;74.51
66835;HTU21D;53743;51.100;5.874;2022-08-03T04:47:44;21.31;74.44
66835;HTU21D;53743;51.100;5.874;2022-08-03T04:48:46;21.33;74.35
66835;HTU21D;53743;51.100;5.874;2022-08-03T04:49:48;21.35;74.23
66835;HTU21D;53743;51.100;5.874;2022-08-03T04:50:50;21.38;74.04
66835;HTU21D;53743;51.100;5.874;2022-08-03T04:51:51;21.40;74.02
66835;HTU21D;53743;51.100;5.874;2022-08-03T04:52:53;21.43;73.95
66835;HTU21D;53743;51.100;5.874;2022-08-03T04:53:54;21.45;73.78
66835;HTU21D;53743;51.100;5.874;2022-08-03T04:54:55;21.49;73.73
66835;HTU21D;53743;51.100;5.874;2022-08-03T04:56:06;21.52;73.64
66835;HTU21D;53743;51.100;5.874;2022-08-03T04:57:07;21.54;73.51
66835;HTU21D;53743;51.100;5.874;2022-08-03T04:58:09;21.59;73.45
66835;HTU21D;53743;51.100;5.874;2022-08-03T04:59:12;21.60;73.35
66835;HTU21D;53743;51.100;5.874;2022-08-03T05:00:13;21.62;73.30
66835;HTU21D;53743;51.100;5.874;2022-08-03T05:01:15;21.64;73.28
66835;HTU21D;53743;51.100;5.874;2022-08-03T05:02:17;21.66;73.20
66835;HTU21D;53743;51.100;5.874;2022-08-03T05:03:18;21.69;73.12
66835;HTU21D;53743;51.100;5.874;2022-08-03T05:04:18;21.73;72.97
66835;HTU21D;53743;51.100;5.874;2022-08-03T05:05:21;21.75;72.92
66835;HTU21D;53743;51.100;5.874;2022-08-03T05:06:22;21.79;72.87
66835;HTU21D;53743;51.100;5.874;2022-08-03T05:07:22;21.80;72.75
66835;HTU21D;53743;51.100;5.874;2022-08-03T05:08:23;21.83;72.64
66835;HTU21D;53743;51.100;5.874;2022-08-03T05:09:24;21.88;72.65
66835;HTU21D;53743;51.100;5.874;2022-08-03T05:10:24;21.90;72.48
66835;HTU21D;53743;51.100;5.874;2022-08-03T05:11:25;21.93;72.43
66835;HTU21D;53743;51.100;5.874;2022-08-03T05:12:26;21.95;72.31
66835;HTU21D;53743;51.100;5.874;2022-08-03T05:13:26;22.02;72.35
66835;HTU21D;53743;51.100;5.874;2022-08-03T05:14:27;22.22;72.73
66835;HTU21D;53743;51.100;5.874;2022-08-03T05:15:27;22.66;72.34
66835;HTU21D;53743;51.100;5.874;2022-08-03T05:16:28;23.29;70.79
66835;HTU21D;53743;51.100;5.874;2022-08-03T05:17:29;23.98;68.47
66835;HTU21D;53743;51.100;5.874;2022-08-03T05:18:29;24.56;66.19
66835;HTU21D;53743;51.100;5.874;2022-08-03T05:19:31;25.02;64.14
66835;HTU21D;53743;51.100;5.874;2022-08-03T05:20:32;25.32;62.54
66835;HTU21D;53743;51.100;5.874;2022-08-03T05:21:33;25.52;61.42
66835;HTU21D;53743;51.100;5.874;2022-08-03T05:22:34;25.65;60.84
66835;HTU21D;53743;51.100;5.874;2022-08-03T05:23:35;25.80;60.32
66835;HTU21D;53743;51.100;5.874;2022-08-03T05:24:37;25.97;59.82
66835;HTU21D;53743;51.100;5.874;2022-08-03T05:25:37;26.17;59.22
66835;HTU21D;53743;51.100;5.874;2022-08-03T05:26:38;26.40;58.56
66835;HTU21D;53743;51.100;5.874;2022-08-03T05:27:39;26.66;57.82
66835;HTU21D;53743;51.100;5.874;2022-08-03T05:28:39;26.94;56.97
66835;HTU21D;53743;51.100;5.874;2022-08-03T05:29:40;27.28;56.06
66835;HTU21D;53743;51.100;5.874;2022-08-03T05:30:40;27.72;54.91
66835;HTU21D;53743;51.100;5.874;2022-08-03T05:31:41;28.10;53.97
66835;HTU21D;53743;51.100;5.874;2022-08-03T05:32:42;28.43;53.04
66835;HTU21D;53743;51.100;5.874;2022-08-03T05:33:43;28.80;52.24
66835;HTU21D;53743;51.100;5.874;2022-08-03T05:34:44;29.22;51.18
66835;HTU21D;53743;51.100;5.874;2022-08-03T05:35:44;29.67;50.08
66835;HTU21D;53743;51.100;5.874;2022-08-03T05:36:45;30.12;48.64
66835;HTU21D;53743;51.100;5.874;2022-08-03T05:37:46;30.59;47.31
66835;HTU21D;53743;51.100;5.874;2022-08-03T05:38:46;31.04;46.12
66835;HTU21D;53743;51.100;5.874;2022-08-03T05:39:47;31.46;45.05
66835;HTU21D;53743;51.100;5.874;2022-08-03T05:40:48;31.82;44.05
66835;HTU21D;53743;51.100;5.874;2022-08-03T05:41:48;32.07;43.24
66835;HTU21D;53743;51.100;5.874;2022-08-03T05:42:49;32.22;42.56
66835;HTU21D;53743;51.100;5.874;2022-08-03T05:43:53;32.29;42.13
66835;HTU21D;53743;51.100;5.874;2022-08-03T05:44:54;32.28;41.64
66835;HTU21D;53743;51.100;5.874;2022-08-03T05:45:55;32.10;42.01
66835;HTU21D;53743;51.100;5.874;2022-08-03T05:46:56;31.81;42.52
66835;HTU21D;53743;51.100;5.874;2022-08-03T05:47:57;31.63;42.96
66835;HTU21D;53743;51.100;5.874;2022-08-03T05:48:58;31.53;43.12
66835;HTU21D;53743;51.100;5.874;2022-08-03T05:49:58;31.49;43.42
66835;HTU21D;53743;51.100;5.874;2022-08-03T05:50:59;31.56;43.48
66835;HTU21D;53743;51.100;5.874;2022-08-03T05:51:59;31.75;43.00
66835;HTU21D;53743;51.100;5.874;2022-08-03T05:53:01;32.05;42.14
66835;HTU21D;53743;51.100;5.874;2022-08-03T05:54:02;32.38;41.71
66835;HTU21D;53743;51.100;5.874;2022-08-03T05:55:05;32.68;40.96
66835;HTU21D;53743;51.100;5.874;2022-08-03T05:56:07;32.90;40.41
66835;HTU21D;53743;51.100;5.874;2022-08-03T05:57:08;33.11;39.98
66835;HTU21D;53743;51.100;5.874;2022-08-03T05:58:09;33.18;39.63
66835;HTU21D;53743;51.100;5.874;2022-08-03T05:59:09;33.20;39.64
66835;HTU21D;53743;51.100;5.874;2022-08-03T06:00:11;33.30;39.76
66835;HTU21D;53743;51.100;5.874;2022-08-03T06:01:12;33.59;39.32
66835;HTU21D;53743;51.100;5.874;2022-08-03T06:02:12;33.94;38.61
66835;HTU21D;53743;51.100;5.874;2022-08-03T06:03:13;34.33;37.73
66835;HTU21D;53743;51.100;5.874;2022-08-03T06:04:14;34.74;36.98
66835;HTU21D;53743;51.100;5.874;2022-08-03T06:05:15;35.18;36.27
66835;HTU21D;53743;51.100;5.874;2022-08-03T06:06:16;35.57;35.50
66835;HTU21D;53743;51.100;5.874;2022-08-03T06:07:17;35.94;34.71
66835;HTU21D;53743;51.100;5.874;2022-08-03T06:08:17;36.26;33.80
66835;HTU21D;53743;51.100;5.874;2022-08-03T06:09:18;36.60;33.27
66835;HTU21D;53743;51.100;5.874;2022-08-03T06:10:19;36.91;32.12
66835;HTU21D;53743;51.100;5.874;2022-08-03T06:11:20;37.25;31.99
66835;HTU21D;53743;51.100;5.874;2022-08-03T06:12:21;37.54;31.45
66835;HTU21D;53743;51.100;5.874;2022-08-03T06:13:21;37.81;30.80
66835;HTU21D;53743;51.100;5.874;2022-08-03T06:14:22;38.07;29.58
66835;HTU21D;53743;51.100;5.874;2022-08-03T06:15:23;0.00;29.61
66835;HTU21D;53743;51.100;5.874;2022-08-03T06:16:23;38.40;28.80
66835;HTU21D;53743;51.100;5.874;2022-08-03T06:17:24;0.00;27.93
66835;HTU21D;53743;51.100;5.874;2022-08-03T06:18:24;38.30;28.98
66835;HTU21D;53743;51.100;5.874;2022-08-03T06:19:25;38.20;29.29
66835;HTU21D;53743;51.100;5.874;2022-08-03T06:20:26;38.21;29.33
66835;HTU21D;53743;51.100;5.874;2022-08-03T06:21:27;38.21;28.81
66835;HTU21D;53743;51.100;5.874;2022-08-03T06:22:28;0.00;27.49
66835;HTU21D;53743;51.100;5.874;2022-08-03T06:23:28;38.31;29.16
66835;HTU21D;53743;51.100;5.874;2022-08-03T06:24:29;38.48;28.96
66835;HTU21D;53743;51.100;5.874;2022-08-03T06:25:30;38.67;28.45
66835;HTU21D;53743;51.100;5.874;2022-08-03T06:26:31;38.88;28.19
66835;HTU21D;53743;51.100;5.874;2022-08-03T06:27:32;0.00;0.00
66835;HTU21D;53743;51.100;5.874;2022-08-03T06:28:32;39.20;27.09
66835;HTU21D;53743;51.100;5.874;2022-08-03T06:29:33;39.32;27.15
66835;HTU21D;53743;51.100;5.874;2022-08-03T06:30:34;39.41;27.26
66835;HTU21D;53743;51.100;5.874;2022-08-03T06:31:35;0.00;0.00
66835;HTU21D;53743;51.100;5.874;2022-08-03T06:32:37;0.00;0.00
66835;HTU21D;53743;51.100;5.874;2022-08-03T06:33:41;40.08;26.04
66835;HTU21D;53743;51.100;5.874;2022-08-03T06:34:41;0.00;25.84
66835;HTU21D;53743;51.100;5.874;2022-08-03T06:35:42;0.00;0.00
66835;HTU21D;53743;51.100;5.874;2022-08-03T06:36:43;0.00;0.00
66835;HTU21D;53743;51.100;5.874;2022-08-03T06:37:48;0.00;0.00
66835;HTU21D;53743;51.100;5.874;2022-08-03T06:38:50;0.00;24.74
66835;HTU21D;53743;51.100;5.874;2022-08-03T06:39:51;40.74;24.82
66835;HTU21D;53743;51.100;5.874;2022-08-03T06:40:53;0.00;24.49
66835;HTU21D;53743;51.100;5.874;2022-08-03T06:41:54;41.04;24.04
66835;HTU21D;53743;51.100;5.874;2022-08-03T06:42:57;0.00;0.00
66835;HTU21D;53743;51.100;5.874;2022-08-03T06:43:58;41.44;0.00
66835;HTU21D;53743;51.100;5.874;2022-08-03T06:44:59;0.00;0.00
66835;HTU21D;53743;51.100;5.874;2022-08-03T06:46:00;0.00;23.30
66835;HTU21D;53743;51.100;5.874;2022-08-03T06:47:00;41.33;22.40
66835;HTU21D;53743;51.100;5.874;2022-08-03T06:49:05;0.00;0.00
66835;HTU21D;53743;51.100;5.874;2022-08-03T06:50:07;0.00;0.00
66835;HTU21D;53743;51.100;5.874;2022-08-03T06:51:09;0.00;0.00